Terminal Aerodrome Forecast
Issued by NWS

Home | Current Version | Previous Version | Text Only | Print | Product List | Glossary On
Versions: 1 2 3 4 5 6 7 8 9 10 11 12 13 14 15 16 17 18 19 20
000
FTAK31 PAFA 251132
TAFAOT
TAF
PAOT 251132Z 2512/2612 11012KT 3/4SM -SHSN BR VV002
      TEMPO 2512/2515 2SM -SHSN BR SCT003 OVC015
     FM252100 15020KT 2SM -SN BR OVC004
     FM260400 21018KT 6SM -SN SCT007 BKN025 OVC050=

USA.gov is the U.S. government's official web portal to all federal, state and local government web resources and services.